Time;durP1;ratioP1;P1;durP2;ratioP2;P2;SDS_P1;SDS_P2;PMS_P1;PMS_P2;Temp;Humidity;BMP_temperature;BMP_pressure;BME280_temperature;BME280_humidity;BME280_pressure;Samples;Min_cycle;Max_cycle;Signal;HPM_P1;HPM_P2
2023/01/24 00:01:01;;;;;;;20.17;9.65;;;;;;;-0.21;71.97;102727.94;1687457;84;21240;-54
2023/01/24 00:04:06;;;;;;;18.65;9.50;;;;;;;-0.23;71.88;102719.05;1687920;84;21359;-52
2023/01/24 00:07:14;;;;;;;21.25;9.70;;;;;;;-0.18;71.87;102718.89;1687926;83;21221;-55
2023/01/24 00:10:19;;;;;;;22.58;9.98;;;;;;;-0.16;71.86;102722.42;1687974;84;21237;-53
2023/01/24 00:13:26;;;;;;;22.42;10.53;;;;;;;-0.14;71.83;102727.27;1687501;85;21182;-53
2023/01/24 00:16:32;;;;;;;19.98;10.08;;;;;;;-0.16;71.79;102721.94;1687407;85;21221;-54
2023/01/24 00:19:38;;;;;;;35.13;13.38;;;;;;;-0.14;71.90;102715.16;1687442;84;21272;-54
2023/01/24 00:22:43;;;;;;;22.40;11.63;;;;;;;-0.05;72.02;102717.56;1687528;85;21245;-54
2023/01/24 00:25:48;;;;;;;19.23;9.13;;;;;;;-0.01;71.99;102725.48;1687596;84;21288;-54
2023/01/24 00:28:55;;;;;;;20.43;9.95;;;;;;;0.02;71.93;102718.23;1687478;84;21248;-53
2023/01/24 00:32:00;;;;;;;20.43;10.18;;;;;;;0.02;71.83;102723.14;1687497;84;21301;-54
2023/01/24 00:35:05;;;;;;;14.18;8.05;;;;;;;-0.03;71.77;102714.33;1687547;84;21241;-54
2023/01/24 00:38:12;;;;;;;19.23;9.28;;;;;;;0.01;71.83;102717.34;1686757;83;21442;-53
2023/01/24 00:41:19;;;;;;;20.65;10.53;;;;;;;0.05;71.82;102715.44;1687762;84;21209;-54
2023/01/24 00:44:25;;;;;;;20.50;10.90;;;;;;;0.10;71.88;102722.41;1687788;84;21248;-53
2023/01/24 00:47:31;;;;;;;21.27;10.23;;;;;;;0.17;71.95;102726.67;1687534;85;21237;-54
2023/01/24 00:50:38;;;;;;;18.05;10.32;;;;;;;0.19;71.89;102718.05;1687678;84;21237;-53
2023/01/24 00:53:45;;;;;;;25.23;12.98;;;;;;;0.18;71.85;102716.30;1669630;84;21217;-53
2023/01/24 00:56:52;;;;;;;21.20;12.20;;;;;;;0.19;71.80;102717.19;1687534;84;21318;-54
2023/01/24 00:59:57;;;;;;;26.97;12.20;;;;;;;0.18;71.77;102720.79;1687475;84;21217;-54
2023/01/24 01:03:04;;;;;;;26.95;13.13;;;;;;;0.17;71.72;102719.05;1687621;84;21209;-53
2023/01/24 01:06:15;;;;;;;32.03;15.30;;;;;;;0.08;71.56;102713.50;1687429;85;21194;-54
2023/01/24 01:09:22;;;;;;;33.13;15.30;;;;;;;0.06;71.66;102722.58;1687388;84;21245;-53
2023/01/24 01:12:28;;;;;;;26.75;14.07;;;;;;;0.10;71.80;102726.45;1687533;84;21239;-53
2023/01/24 01:15:33;;;;;;;25.88;13.88;;;;;;;0.13;71.80;102718.75;1687467;84;21245;-54
2023/01/24 01:18:38;;;;;;;28.07;14.00;;;;;;;0.19;71.86;102722.58;1687525;85;21197;-54
2023/01/24 01:21:45;;;;;;;32.48;14.35;;;;;;;0.22;71.91;102717.97;1687515;84;21221;-54
2023/01/24 01:24:51;;;;;;;30.68;14.65;;;;;;;0.23;71.81;102717.48;1687527;84;21240;-54
2023/01/24 01:28:00;;;;;;;25.17;12.75;;;;;;;0.23;71.79;102723.76;1687588;85;21233;-52
2023/01/24 01:31:05;;;;;;;28.35;13.03;;;;;;;0.28;71.89;102717.75;1687391;84;21809;-55
2023/01/24 01:34:12;;;;;;;27.98;13.80;;;;;;;0.32;71.89;102726.61;1669440;84;21233;-54
2023/01/24 01:37:17;;;;;;;32.17;13.83;;;;;;;0.34;71.83;102722.91;1687391;85;21238;-55
2023/01/24 01:40:25;;;;;;;26.35;13.60;;;;;;;0.25;71.62;102722.36;1697985;83;21219;-54
2023/01/24 01:43:33;;;;;;;27.82;13.78;;;;;;;0.12;71.46;102722.36;1697902;83;21282;-52
2023/01/24 01:46:50;;;;;;;23.52;12.18;;;;;;;0.13;71.63;102722.80;1697882;84;21223;-53
2023/01/24 01:50:21;;;;;;;23.12;11.83;;;;;;;0.18;71.79;102724.83;1672685;84;21231;-53
2023/01/24 01:53:27;;;;;;;29.85;14.20;;;;;;;0.24;71.88;102722.81;1697741;84;21286;-53
2023/01/24 01:56:57;;;;;;;26.23;13.45;;;;;;;0.28;71.87;102723.14;1697810;84;21223;-53
2023/01/24 02:00:15;;;;;;;26.10;12.82;;;;;;;0.31;71.88;102732.45;1697898;83;21238;-53
2023/01/24 02:03:40;;;;;;;26.50;12.85;;;;;;;0.33;71.88;102723.86;1697900;84;21191;-52
2023/01/24 02:07:22;;;;;;;29.65;13.98;;;;;;;0.38;71.95;102723.20;1697979;84;21575;-54
2023/01/24 02:16:01;;;;;;;24.87;12.75;;;;;;;0.39;71.86;102719.59;1697884;83;21243;-53
2023/01/24 02:17:02;;;;;;;31.17;14.53;;;;;;;0.41;71.93;102720.89;1697937;83;21235;-54
2023/01/24 02:20:35;;;;;;;32.23;16.93;;;;;;;0.44;71.96;102717.63;1697897;83;21227;-54
2023/01/24 02:23:54;;;;;;;24.07;12.93;;;;;;;0.48;72.03;102716.56;1698101;83;21234;-54
2023/01/24 02:27:01;;;;;;;23.22;12.95;;;;;;;0.53;72.03;102721.33;1697810;84;21223;-54
2023/01/24 02:30:07;;;;;;;24.05;12.20;;;;;;;0.57;72.04;102722.96;1697791;83;21218;-54
2023/01/24 02:33:22;;;;;;;27.45;13.88;;;;;;;0.57;71.95;102719.41;1698216;83;21282;-53
2023/01/24 02:36:35;;;;;;;29.20;13.70;;;;;;;0.60;72.02;102714.80;1672698;84;21231;-54
2023/01/24 02:39:59;;;;;;;23.47;13.22;;;;;;;0.58;71.88;102711.27;1690946;84;21393;-53
2023/01/24 02:43:10;;;;;;;23.55;12.43;;;;;;;0.58;71.81;102717.11;1679163;84;21734;-54
2023/01/24 02:46:15;;;;;;;28.20;13.85;;;;;;;0.51;71.73;102712.41;1662764;85;21328;-54
2023/01/24 02:49:21;;;;;;;27.58;14.45;;;;;;;0.49;71.71;102712.06;1679714;84;21293;-54
2023/01/24 02:59:14;;;;;;;24.85;12.15;;;;;;;0.57;71.81;102713.53;1679723;84;21253;-52
2023/01/24 03:02:20;;;;;;;24.95;12.10;;;;;;;0.53;71.77;102713.24;1679123;85;21265;-54
2023/01/24 03:05:39;;;;;;;26.15;13.40;;;;;;;0.51;71.81;102710.20;1686183;84;21230;-54
2023/01/24 03:08:40;;;;;;;25.27;13.15;;;;;;;0.54;71.85;102704.21;1679258;84;21273;-54
2023/01/24 03:35:53;;;;;;;18.65;11.12;;;;;;;0.92;72.14;102696.93;1679211;84;21273;-54
2023/01/24 03:42:22;;;;;;;34.43;17.40;;;;;;;0.95;72.06;102695.95;1687495;84;21217;-54
2023/01/24 03:45:37;;;;;;;28.05;15.10;;;;;;;0.97;72.05;102692.25;1687427;83;21233;-52
2023/01/24 03:48:45;;;;;;;34.05;17.50;;;;;;;0.99;72.01;102697.13;1687417;83;21749;-53
2023/01/24 03:55:21;;;;;;;32.17;16.12;;;;;;;1.05;71.99;102706.78;1687407;83;21241;-52
2023/01/24 03:58:26;;;;;;;30.23;14.65;;;;;;;1.03;71.93;102708.19;1687507;85;21272;-54
2023/01/24 04:01:32;;;;;;;26.07;13.65;;;;;;;1.03;71.97;102709.53;1687621;83;21201;-53
2023/01/24 04:08:05;;;;;;;35.10;16.93;;;;;;;1.03;71.91;102708.19;1687423;85;21225;-54
2023/01/24 04:11:10;;;;;;;26.37;13.80;;;;;;;0.90;71.55;102717.70;1687781;83;21233;-53
2023/01/24 04:14:20;;;;;;;24.20;13.25;;;;;;;0.80;71.56;102717.63;1687878;83;21233;-53
2023/01/24 04:17:30;;;;;;;21.65;10.45;;;;;;;0.80;71.60;102720.32;1668312;85;21217;-54
2023/01/24 04:20:38;;;;;;;21.97;9.63;;;;;;;0.78;71.76;102722.19;1667120;83;21253;-53
2023/01/24 04:23:45;;;;;;;17.90;10.48;;;;;;;0.84;71.93;102725.14;1687481;83;21238;-56
2023/01/24 04:26:51;;;;;;;21.77;10.10;;;;;;;0.87;71.98;102725.88;1687421;85;21263;-55
2023/01/24 04:29:59;;;;;;;19.35;10.93;;;;;;;0.93;72.02;102723.44;1688184;83;21217;-53
2023/01/24 04:33:06;;;;;;;21.33;10.38;;;;;;;0.96;72.01;102725.55;1687454;84;21769;-56
2023/01/24 04:36:15;;;;;;;17.67;9.18;;;;;;;0.99;72.04;102720.50;1688095;84;21794;-56
2023/01/24 04:39:23;;;;;;;16.23;9.10;;;;;;;1.00;72.04;102720.44;1687818;83;21221;-55
2023/01/24 04:42:30;;;;;;;15.98;10.00;;;;;;;1.03;72.03;102716.77;1688143;82;21296;-56
2023/01/24 04:45:35;;;;;;;18.25;9.15;;;;;;;1.06;72.00;102722.90;1687388;83;21245;-55
2023/01/24 04:48:43;;;;;;;14.28;8.10;;;;;;;1.06;71.96;102712.11;1687510;85;21233;-55
2023/01/24 04:51:59;;;;;;;20.72;9.83;;;;;;;1.05;71.93;102721.61;1687412;83;21261;-54
2023/01/24 04:55:10;;;;;;;19.87;9.98;;;;;;;1.03;71.92;102723.02;1687948;83;21269;-60
2023/01/24 04:58:17;;;;;;;19.82;9.18;;;;;;;1.02;71.88;102729.82;1687483;85;21213;-59
2023/01/24 05:01:23;;;;;;;19.92;9.88;;;;;;;1.01;71.90;102727.62;1687462;83;21221;-59
2023/01/24 05:04:32;;;;;;;16.55;10.08;;;;;;;1.02;71.92;102736.56;1687459;83;21249;-57
2023/01/24 05:07:38;;;;;;;16.27;9.48;;;;;;;1.03;71.90;102724.37;1687452;84;21394;-59
2023/01/24 05:10:44;;;;;;;15.48;9.55;;;;;;;1.04;71.87;102731.55;1687374;83;21276;-59
2023/01/24 05:13:55;;;;;;;19.45;10.28;;;;;;;1.01;71.86;102738.86;1687607;83;21209;-59
2023/01/24 05:17:01;;;;;;;16.85;9.50;;;;;;;1.00;71.87;102744.71;1687814;84;21214;-59
2023/01/24 05:20:07;;;;;;;17.00;9.33;;;;;;;0.99;71.83;102737.58;1687472;83;21245;-59
2023/01/24 05:23:12;;;;;;;19.32;10.68;;;;;;;0.96;71.76;102747.12;1667386;85;21363;-60
2023/01/24 05:26:18;;;;;;;20.80;12.03;;;;;;;0.94;71.72;102746.30;1686995;84;21268;-59
2023/01/24 05:29:23;;;;;;;25.77;12.85;;;;;;;0.93;71.74;102743.20;1666874;83;21308;-58
2023/01/24 05:32:29;;;;;;;17.57;10.15;;;;;;;0.92;71.71;102734.68;1687067;84;21881;-58
2023/01/24 05:35:33;;;;;;;19.65;10.72;;;;;;;0.86;71.58;102738.96;1686922;83;21718;-59
2023/01/24 05:38:39;;;;;;;30.27;13.75;;;;;;;0.82;71.65;102738.67;1687126;84;21270;-58
2023/01/24 05:41:44;;;;;;;28.05;12.00;;;;;;;0.83;71.69;102736.84;1687334;85;21233;-59
2023/01/24 05:44:53;;;;;;;23.67;12.07;;;;;;;0.82;71.70;102733.28;1714330;83;21236;-58
2023/01/24 05:48:00;;;;;;;30.08;13.15;;;;;;;0.79;71.71;102729.36;1716062;83;21382;-59
2023/01/24 05:51:14;;;;;;;30.12;12.10;;;;;;;0.75;71.63;102730.39;1699889;82;21355;-59
2023/01/24 05:54:20;;;;;;;36.13;13.38;;;;;;;0.73;71.61;102725.52;1687163;83;21304;-59
2023/01/24 05:57:28;;;;;;;28.27;12.93;;;;;;;0.69;71.52;102730.62;1696189;81;21745;-59
2023/01/24 06:00:40;;;;;;;27.45;14.13;;;;;;;0.70;71.64;102727.47;1684388;83;21232;-59
2023/01/24 06:03:51;;;;;;;30.23;13.55;;;;;;;0.73;71.66;102720.61;1714955;82;21284;-61
2023/01/24 06:06:58;;;;;;;22.17;10.98;;;;;;;0.74;71.70;102727.30;1715592;83;21300;-61
2023/01/24 06:10:06;;;;;;;23.52;10.88;;;;;;;0.78;71.75;102728.92;1694614;82;21217;-62
2023/01/24 06:13:13;;;;;;;20.17;11.18;;;;;;;0.78;71.62;102727.58;1713282;83;21292;-61
2023/01/24 06:16:27;;;;;;;22.17;11.43;;;;;;;0.76;71.60;102733.48;1714841;81;21296;-61
2023/01/24 06:19:34;;;;;;;25.82;12.93;;;;;;;0.74;71.60;102735.37;1726262;82;21758;-61
2023/01/24 06:22:59;;;;;;;21.17;12.05;;;;;;;0.74;71.55;102735.37;1714209;83;21217;-61
2023/01/24 06:26:06;;;;;;;23.07;12.00;;;;;;;0.77;71.50;102726.28;1708971;82;21246;-62
2023/01/24 06:29:13;;;;;;;24.43;11.38;;;;;;;0.75;71.40;102731.73;1700103;82;21824;-62
2023/01/24 06:32:41;;;;;;;27.32;12.85;;;;;;;0.79;71.43;102733.41;1715713;82;21228;-61
2023/01/24 06:36:15;;;;;;;24.87;12.60;;;;;;;0.82;71.36;102740.48;1716866;82;21292;-61
2023/01/24 06:39:23;;;;;;;39.03;18.20;;;;;;;0.84;71.35;102742.66;1731541;82;21218;-60
2023/01/24 06:42:29;;;;;;;60.95;24.43;;;;;;;0.74;71.08;102740.77;1732554;83;21735;-60
2023/01/24 06:45:34;;;;;;;39.70;19.17;;;;;;;0.71;71.17;102740.89;1725729;80;21325;-61
2023/01/24 06:48:40;;;;;;;47.85;20.43;;;;;;;0.79;71.24;102753.62;1724559;81;21245;-60
2023/01/24 06:51:47;;;;;;;42.03;18.62;;;;;;;0.84;71.23;102742.17;1707511;83;21241;-61
2023/01/24 06:54:53;;;;;;;27.52;13.55;;;;;;;0.76;70.99;102752.35;1737867;82;21367;-61
2023/01/24 06:58:05;;;;;;;26.55;12.23;;;;;;;0.76;71.09;102743.41;1738469;82;21381;-60
2023/01/24 07:01:11;;;;;;;21.60;11.95;;;;;;;0.79;71.11;102742.84;1738019;82;21774;-60
2023/01/24 07:04:17;;;;;;;22.73;12.40;;;;;;;0.83;71.10;102742.23;1723011;82;21202;-61
2023/01/24 07:07:23;;;;;;;24.20;12.78;;;;;;;0.86;71.16;102740.77;1725598;81;21742;-60
2023/01/24 07:10:29;;;;;;;28.55;14.10;;;;;;;0.87;71.08;102738.50;1721410;81;21196;-60
2023/01/24 07:13:34;;;;;;;26.70;15.08;;;;;;;0.89;71.11;102729.86;1697025;83;21750;-60
2023/01/24 07:16:41;;;;;;;36.23;15.55;;;;;;;0.91;71.03;102732.94;1721433;83;21255;-62
2023/01/24 07:19:50;;;;;;;27.58;13.83;;;;;;;0.83;70.77;102733.69;1707967;83;21273;-61
2023/01/24 07:22:59;;;;;;;21.85;11.03;;;;;;;0.86;70.87;102728.63;1707599;83;21222;-60
2023/01/24 07:26:09;;;;;;;20.05;10.95;;;;;;;0.87;70.85;102731.27;1732845;82;21243;-60
2023/01/24 07:29:14;;;;;;;21.50;10.45;;;;;;;0.92;70.87;102722.55;1722568;82;21386;-60
2023/01/24 07:32:19;;;;;;;20.80;10.63;;;;;;;0.96;70.88;102727.36;1720887;83;21574;-60
2023/01/24 07:35:26;;;;;;;23.85;11.43;;;;;;;1.04;70.97;102727.95;1723164;82;21283;-62
2023/01/24 07:38:32;;;;;;;24.35;11.90;;;;;;;1.13;70.92;102728.94;1698907;84;22042;-61
2023/01/24 07:41:42;;;;;;;25.88;12.23;;;;;;;1.09;70.68;102724.16;1715957;83;21787;-62
2023/01/24 07:44:48;;;;;;;23.62;11.08;;;;;;;1.09;70.69;102721.47;1707242;82;21354;-61
2023/01/24 07:47:54;;;;;;;28.70;13.13;;;;;;;1.12;70.62;102716.41;1738907;82;21248;-62
2023/01/24 07:51:03;;;;;;;30.43;13.15;;;;;;;1.07;70.49;102712.55;1712056;83;21235;-61
2023/01/24 07:54:10;;;;;;;21.55;11.12;;;;;;;1.10;70.58;102716.47;1707226;84;21279;-60
2023/01/24 07:57:17;;;;;;;21.82;10.50;;;;;;;1.16;70.70;102718.03;1710046;83;21237;-61
2023/01/24 08:00:22;;;;;;;19.90;9.98;;;;;;;1.24;70.84;102715.46;1704405;82;21289;-62
2023/01/24 08:03:29;;;;;;;21.57;9.95;;;;;;;1.31;70.87;102719.69;1726744;82;21180;-60
2023/01/24 08:06:35;;;;;;;25.32;11.68;;;;;;;1.39;70.88;102719.38;1719368;83;21233;-60
2023/01/24 08:09:40;;;;;;;19.17;10.45;;;;;;;1.38;70.74;102722.54;1720210;83;21253;-61
2023/01/24 08:12:48;;;;;;;22.02;11.57;;;;;;;1.39;70.70;102728.37;1720141;83;21245;-59
2023/01/24 08:15:55;;;;;;;22.90;11.43;;;;;;;1.35;70.42;102724.02;1719904;83;21316;-62
2023/01/24 08:19:00;;;;;;;22.50;11.08;;;;;;;1.20;70.30;102720.58;1700221;83;21265;-60
2023/01/24 08:22:07;;;;;;;27.55;13.28;;;;;;;1.20;70.50;102717.88;1719694;83;21209;-60
2023/01/24 08:25:15;;;;;;;30.60;12.05;;;;;;;1.22;70.50;102711.94;1691363;83;21276;-60
2023/01/24 08:28:22;;;;;;;31.60;15.18;;;;;;;1.14;70.42;102712.70;1691618;84;21225;-60
2023/01/24 08:31:28;;;;;;;30.92;15.60;;;;;;;1.10;70.43;102712.42;1695929;83;21367;-60
2023/01/24 08:34:35;;;;;;;31.42;14.00;;;;;;;1.08;70.50;102711.59;1720880;82;21233;-60
2023/01/24 08:37:41;;;;;;;25.12;12.85;;;;;;;1.06;70.46;102706.72;1719249;83;21249;-60
2023/01/24 08:40:49;;;;;;;28.60;12.70;;;;;;;1.11;70.60;102707.42;1717571;82;21228;-60
2023/01/24 08:43:54;;;;;;;27.35;12.30;;;;;;;1.17;70.61;102701.78;1719244;83;21248;-60
2023/01/24 08:47:00;;;;;;;22.45;10.55;;;;;;;1.13;70.48;102686.67;1716617;80;21241;-61
2023/01/24 08:50:05;;;;;;;27.85;11.55;;;;;;;1.11;70.55;102691.24;1714279;83;21767;-60
2023/01/24 08:53:12;;;;;;;27.67;11.68;;;;;;;1.19;70.64;102692.31;1714554;82;21576;-60
2023/01/24 08:56:19;;;;;;;27.15;11.73;;;;;;;1.18;70.50;102690.53;1725613;82;21603;-60
2023/01/24 08:59:24;;;;;;;24.85;11.25;;;;;;;1.14;70.47;102687.07;1724470;82;21203;-59
2023/01/24 09:02:32;;;;;;;33.38;14.38;;;;;;;1.18;70.53;102694.58;1724492;81;21211;-60
2023/01/24 09:05:38;;;;;;;30.90;14.68;;;;;;;1.16;70.43;102695.99;1685071;83;21739;-66
2023/01/24 09:08:44;;;;;;;23.22;10.90;;;;;;;1.18;70.51;102685.14;1685891;83;21174;-60
2023/01/24 09:11:52;;;;;;;25.05;10.82;;;;;;;1.26;70.66;102687.07;1711940;83;21239;-62
2023/01/24 09:14:56;;;;;;;26.07;11.50;;;;;;;1.37;70.78;102683.02;1710937;82;21233;-61
2023/01/24 09:18:04;;;;;;;24.37;11.25;;;;;;;1.48;70.85;102684.81;1713953;83;21263;-60
2023/01/24 09:21:11;;;;;;;26.82;11.03;;;;;;;1.59;70.80;102678.11;1704918;83;21273;-61
2023/01/24 09:24:19;;;;;;;22.17;11.20;;;;;;;1.59;70.59;102683.02;1696601;82;21229;-61
2023/01/24 09:27:27;;;;;;;30.20;13.45;;;;;;;1.62;70.54;102682.03;1714873;82;21200;-61
2023/01/24 09:30:34;;;;;;;22.58;10.60;;;;;;;1.67;70.58;102676.83;1714729;82;21867;-58
2023/01/24 09:33:43;;;;;;;24.82;13.15;;;;;;;1.77;70.63;102670.58;1714305;82;21237;-56
2023/01/24 09:36:50;;;;;;;25.95;10.80;;;;;;;1.80;70.48;102672.69;1713680;83;21217;-55
2023/01/24 09:39:59;;;;;;;23.30;9.90;;;;;;;1.78;70.36;102674.56;1699367;83;21791;-55
2023/01/24 09:43:24;;;;;;;21.75;10.35;;;;;;;1.77;70.30;102671.92;1714367;82;21218;-56
2023/01/24 09:46:53;;;;;;;17.92;9.48;;;;;;;1.82;70.38;102672.62;1712966;82;21404;-56
2023/01/24 09:50:09;;;;;;;22.00;8.68;;;;;;;1.96;70.49;102671.56;1712988;82;21251;-56
2023/01/24 09:53:20;;;;;;;20.30;9.28;;;;;;;2.06;70.53;102675.14;1695255;82;21626;-55
2023/01/24 09:56:35;;;;;;;39.38;17.07;;;;;;;2.15;70.51;102669.83;1742984;81;21215;-56
2023/01/24 09:59:50;;;;;;;25.15;10.18;;;;;;;2.25;70.57;102667.99;1723198;81;21251;-55
2023/01/24 10:02:58;;;;;;;18.85;9.53;;;;;;;2.33;70.49;102654.17;1665442;84;21221;-50
2023/01/24 10:06:10;;;;;;;23.12;9.03;;;;;;;2.35;70.28;102660.36;1690145;82;21796;-54
2023/01/24 10:10:00;;;;;;;22.80;8.90;;;;;;;2.39;70.32;102660.19;1708580;81;21232;-53
2023/01/24 10:13:18;;;;;;;19.35;8.73;;;;;;;2.47;70.31;102659.37;1723182;83;21199;-57
2023/01/24 10:16:54;;;;;;;18.48;8.68;;;;;;;2.53;70.20;102657.73;1724235;81;21250;-56
2023/01/24 10:20:37;;;;;;;19.07;8.63;;;;;;;2.55;70.13;102652.26;1715199;82;21814;-56
2023/01/24 10:23:45;;;;;;;;;;;;;;;2.63;70.05;102648.73;1717820;83;21216;-56
2023/01/24 10:26:54;;;;;;;25.55;9.60;;;;;;;2.68;70.03;102648.05;1715068;82;20264;-56
2023/01/24 10:30:04;;;;;;;27.35;10.08;;;;;;;2.69;69.88;102644.39;1697442;83;21286;-57
2023/01/24 10:33:15;;;;;;;22.25;10.10;;;;;;;2.76;69.97;102644.48;1688353;84;21236;-57
2023/01/24 10:36:47;;;;;;;21.50;11.35;;;;;;;2.80;69.79;102644.77;1694467;84;21206;-55
2023/01/24 10:39:52;;;;;;;29.92;11.03;;;;;;;2.76;69.50;102644.03;1706960;82;21276;-57
2023/01/24 10:42:58;;;;;;;22.40;9.38;;;;;;;2.74;69.52;102642.36;1715781;83;21220;-56
2023/01/24 10:46:33;;;;;;;18.85;10.30;;;;;;;2.88;69.74;102637.17;1715949;83;21295;-57
2023/01/24 10:49:45;;;;;;;19.98;10.53;;;;;;;3.12;69.84;102625.66;1714784;83;21350;-58
2023/01/24 10:52:53;;;;;;;27.85;12.47;;;;;;;3.35;69.79;102624.94;1715317;83;21350;-57
2023/01/24 10:56:06;;;;;;;23.38;11.90;;;;;;;3.57;69.72;102626.98;1715422;82;21232;-58
2023/01/24 10:59:17;;;;;;;22.93;12.60;;;;;;;3.68;69.43;102620.55;1714825;82;21243;-57
2023/01/24 11:02:33;;;;;;;26.20;13.03;;;;;;;3.74;69.29;102616.67;1721429;82;21359;-59
2023/01/24 11:05:54;;;;;;;28.32;13.62;;;;;;;3.72;68.82;102612.69;1711572;82;21297;-56
2023/01/24 11:09:10;;;;;;;30.23;12.95;;;;;;;3.67;68.71;102615.22;1712493;81;21776;-55
2023/01/24 11:12:20;;;;;;;27.15;13.58;;;;;;;3.62;68.52;102614.56;1713732;82;21575;-57
2023/01/24 11:15:30;;;;;;;24.23;12.95;;;;;;;3.45;68.18;102607.30;1692379;83;21205;-56
2023/01/24 11:18:37;;;;;;;25.72;13.53;;;;;;;3.34;68.30;102601.55;1689161;83;22178;-56
2023/01/24 11:21:42;;;;;;;28.67;12.35;;;;;;;3.39;68.62;102609.44;1713992;83;21269;-56
2023/01/24 11:24:52;;;;;;;25.32;13.03;;;;;;;3.39;68.49;102601.31;1695664;83;21246;-57
2023/01/24 11:28:00;;;;;;;31.35;13.80;;;;;;;3.35;68.47;102592.45;1713851;82;21276;-57
2023/01/24 11:31:13;;;;;;;23.73;12.43;;;;;;;3.43;68.60;102592.07;1713791;83;21802;-57
2023/01/24 11:34:48;;;;;;;23.75;12.18;;;;;;;3.50;68.63;102594.42;1713810;82;21734;-56
2023/01/24 11:38:22;;;;;;;27.85;12.80;;;;;;;3.56;68.47;102591.86;1714088;83;21600;-57
2023/01/24 11:41:40;;;;;;;22.45;12.23;;;;;;;3.52;68.36;102588.42;1714237;82;21219;-56
2023/01/24 11:45:30;;;;;;;26.07;13.00;;;;;;;3.52;68.29;102588.92;1715101;82;21798;-56
2023/01/24 11:49:00;;;;;;;31.90;12.75;;;;;;;3.41;68.03;102582.67;1689198;83;21838;-58
2023/01/24 11:52:41;;;;;;;22.58;10.75;;;;;;;3.40;68.28;102574.62;1698858;84;21300;-59
2023/01/24 11:56:09;;;;;;;23.57;12.45;;;;;;;3.49;68.31;102579.61;1698839;83;21256;-56
2023/01/24 11:59:38;;;;;;;24.32;11.70;;;;;;;3.59;68.35;102570.92;1721461;83;21244;-57
2023/01/24 12:03:08;;;;;;;26.73;12.23;;;;;;;3.76;68.45;102584.97;1717565;82;21231;-57
2023/01/24 12:06:27;;;;;;;22.37;11.75;;;;;;;3.88;68.36;102584.33;1734263;81;21377;-59
2023/01/24 12:09:46;;;;;;;28.75;12.28;;;;;;;3.92;68.19;102588.61;1729338;81;21200;-59
2023/01/24 12:13:50;;;;;;;24.02;11.83;;;;;;;4.01;68.21;102593.08;1724650;81;21759;-59
2023/01/24 12:17:10;;;;;;;;;;;;;;;4.01;67.96;102589.02;1674600;82;21244;-58
2023/01/24 12:20:54;;;;;;;32.75;12.82;;;;;;;3.97;67.91;102587.91;1719721;82;20235;-54
2023/01/24 12:24:09;;;;;;;25.60;11.73;;;;;;;4.07;68.02;102591.43;1716022;82;21235;-55
2023/01/24 12:27:23;;;;;;;18.25;10.63;;;;;;;4.10;67.91;102593.98;1694645;82;21247;-53
2023/01/24 12:30:43;;;;;;;23.20;11.50;;;;;;;4.18;67.83;102594.45;1700989;83;21909;-53
2023/01/24 12:33:59;;;;;;;24.52;12.23;;;;;;;4.22;67.69;102593.31;1672787;84;21194;-52
2023/01/24 12:37:20;;;;;;;24.23;11.35;;;;;;;4.23;67.66;102586.92;1681666;84;21596;-54
2023/01/24 12:40:52;;;;;;;29.32;11.30;;;;;;;4.18;67.30;102591.73;1698908;83;21275;-52
2023/01/24 12:44:06;;;;;;;24.72;12.15;;;;;;;4.17;67.28;102593.18;1705010;82;21200;-54
2023/01/24 12:47:38;;;;;;;25.25;11.78;;;;;;;4.13;67.17;102591.09;1709300;83;21249;-53
2023/01/24 12:51:06;;;;;;;22.22;11.05;;;;;;;4.14;67.22;102594.20;1717942;81;21194;-53
2023/01/24 12:54:29;;;;;;;25.20;10.85;;;;;;;4.23;67.36;102586.92;1751569;81;21288;-52
2023/01/24 12:57:38;;;;;;;22.95;10.98;;;;;;;4.15;67.12;102591.02;1752209;82;21292;-53
2023/01/24 13:01:33;;;;;;;24.60;11.18;;;;;;;4.18;67.28;102599.87;1751396;81;21244;-54
2023/01/24 13:05:45;;;;;;;25.52;11.43;;;;;;;4.25;67.35;102593.65;1675553;85;21231;-54
2023/01/24 13:09:23;;;;;;;22.55;10.90;;;;;;;4.25;67.23;102590.94;1691376;82;21827;-59
2023/01/24 13:12:31;;;;;;;22.05;11.95;;;;;;;4.21;67.17;102587.50;1741901;82;21485;-57
2023/01/24 13:16:30;;;;;;;22.15;11.45;;;;;;;4.20;67.20;102589.80;1746744;81;21177;-53
2023/01/24 13:20:04;;;;;;;22.98;11.03;;;;;;;4.19;67.19;102586.70;1740889;80;21594;-52
2023/01/24 13:23:31;;;;;;;17.62;10.00;;;;;;;4.16;67.16;102584.16;1747186;81;22061;-53
2023/01/24 13:26:55;;;;;;;18.30;10.18;;;;;;;4.12;67.02;102585.27;1693246;83;21239;-53
2023/01/24 13:30:25;;;;;;;22.32;10.43;;;;;;;4.02;66.92;102585.38;1719148;81;21231;-53
2023/01/24 13:33:46;;;;;;;26.52;10.70;;;;;;;3.96;66.97;102589.76;1713669;83;21243;-54
2023/01/24 13:36:52;;;;;;;16.45;9.35;;;;;;;3.93;67.00;102587.18;1746117;82;21239;-52
2023/01/24 13:40:16;;;;;;;22.55;10.75;;;;;;;3.80;66.83;102583.38;1732920;81;21726;-52
2023/01/24 13:54:46;;;;;;;40.20;25.45;;;;;;;3.46;66.87;102584.67;1831079;74;28115;-52
2023/01/24 13:57:53;;;;;;;24.80;15.38;;;;;;;3.42;66.75;102580.39;1801233;77;21168;-52
2023/01/24 14:00:59;;;;;;;30.00;15.58;;;;;;;3.27;66.43;102583.84;1798777;78;21771;-52
2023/01/24 14:04:10;;;;;;;38.70;19.85;;;;;;;3.04;66.12;102582.25;1799425;79;21208;-52
2023/01/24 14:07:28;;;;;;;48.10;22.07;;;;;;;2.91;66.26;102582.93;1757515;80;21587;-53
2023/01/24 14:10:45;;;;;;;64.95;28.27;;;;;;;2.82;66.35;102590.14;1785496;79;21256;-53
2023/01/24 14:14:01;;;;;;;62.35;27.52;;;;;;;2.67;66.33;102593.09;1780300;79;21789;-52
2023/01/24 14:17:13;;;;;;;50.92;23.42;;;;;;;2.54;66.40;102595.95;1793370;79;21189;-52
2023/01/24 14:20:34;;;;;;;30.23;14.55;;;;;;;2.44;66.47;102601.86;1802124;78;21764;-53
2023/01/24 14:23:40;;;;;;;24.47;11.95;;;;;;;2.33;66.49;102608.23;1770654;79;21196;-53
2023/01/24 14:26:45;;;;;;;21.95;11.25;;;;;;;2.22;66.53;102610.53;1754901;79;21778;-53
2023/01/24 14:29:54;;;;;;;23.87;10.88;;;;;;;2.08;66.45;102609.77;1799263;79;21325;-54
2023/01/24 14:33:05;;;;;;;26.55;11.78;;;;;;;1.95;66.37;102613.09;1755904;79;21566;-54
2023/01/24 14:36:36;;;;;;;24.47;10.93;;;;;;;1.84;66.34;102616.73;1776690;80;21188;-55
2023/01/24 14:39:42;;;;;;;22.80;12.55;;;;;;;1.69;66.25;102614.67;1734578;82;21320;-54
2023/01/24 14:42:48;;;;;;;19.02;11.08;;;;;;;1.53;66.23;102616.69;1792137;79;21215;-54
2023/01/24 14:45:54;;;;;;;24.67;11.40;;;;;;;1.44;66.28;102618.39;1802976;77;21495;-53
2023/01/24 14:48:48;;;;;;;22.30;10.90;;;;;;;1.34;66.32;102615.69;1800650;78;21194;-54
2023/01/24 14:51:53;;;;;;;21.40;12.18;;;;;;;1.25;66.32;102613.34;1809750;79;21188;-54
2023/01/24 14:55:08;;;;;;;30.27;13.32;;;;;;;1.15;66.35;102609.73;1805678;79;21184;-53
2023/01/24 14:58:34;;;;;;;28.77;15.55;;;;;;;1.05;66.34;102612.39;1809056;78;21188;-53
2023/01/24 15:01:42;;;;;;;34.63;17.73;;;;;;;0.94;66.26;102618.22;1805628;79;21208;-52
2023/01/24 15:04:52;;;;;;;31.25;17.30;;;;;;;0.84;66.31;102609.21;1797841;78;21209;-54
2023/01/24 15:07:58;;;;;;;32.58;16.70;;;;;;;0.78;66.39;102613.01;1801288;79;21205;-53
2023/01/24 15:11:13;;;;;;;34.30;16.52;;;;;;;0.70;66.43;102611.08;1801093;79;21210;-53
2023/01/24 15:14:26;;;;;;;27.95;13.88;;;;;;;0.64;66.51;102614.02;1783474;79;21513;-54
2023/01/24 15:17:34;;;;;;;27.77;13.90;;;;;;;0.59;66.57;102613.30;1783163;79;21280;-54
2023/01/24 15:20:40;;;;;;;37.45;13.40;;;;;;;0.53;66.61;102612.20;1724779;81;21240;-54
2023/01/24 15:23:45;;;;;;;23.42;12.45;;;;;;;0.47;66.57;102614.23;1769332;79;21213;-54
2023/01/24 15:26:51;;;;;;;20.77;11.97;;;;;;;0.39;66.54;102614.53;1760387;79;21196;-54
2023/01/24 15:29:56;;;;;;;24.25;12.50;;;;;;;0.33;66.53;102616.56;1784756;79;21224;-54
2023/01/24 15:33:12;;;;;;;19.35;13.32;;;;;;;0.27;66.51;102613.62;1756063;80;21280;-54
2023/01/24 15:36:38;;;;;;;30.08;13.30;;;;;;;0.23;66.54;102616.02;1803837;77;21195;-54
2023/01/24 15:39:44;;;;;;;20.57;12.60;;;;;;;0.17;66.53;102617.60;1806990;78;21216;-54
2023/01/24 15:51:05;;;;;;;33.60;15.13;;;;;;;-0.02;66.54;102616.50;1806360;78;21192;-53